sensor_id;sensor_type;location;lat;lon;timestamp;temperature;humidity
23259;DHT22;11798;51.528;7.240;2022-11-09T00:01:30;14.70;99.90
23259;DHT22;11798;51.528;7.240;2022-11-09T00:03:57;14.70;99.90
23259;DHT22;11798;51.528;7.240;2022-11-09T00:06:24;14.60;99.90
23259;DHT22;11798;51.528;7.240;2022-11-09T00:08:50;14.70;99.90
23259;DHT22;11798;51.528;7.240;2022-11-09T00:11:16;14.70;99.90
23259;DHT22;11798;51.528;7.240;2022-11-09T00:13:43;14.70;99.90
23259;DHT22;11798;51.528;7.240;2022-11-09T00:16:11;14.70;99.90
23259;DHT22;11798;51.528;7.240;2022-11-09T00:18:37;14.70;99.90
23259;DHT22;11798;51.528;7.240;2022-11-09T00:21:11;14.70;99.90
23259;DHT22;11798;51.528;7.240;2022-11-09T00:23:37;14.60;99.90
23259;DHT22;11798;51.528;7.240;2022-11-09T00:26:05;14.60;99.90
23259;DHT22;11798;51.528;7.240;2022-11-09T00:28:30;14.70;99.90
23259;DHT22;11798;51.528;7.240;2022-11-09T00:31:00;14.70;99.90
23259;DHT22;11798;51.528;7.240;2022-11-09T00:33:26;14.70;99.90
23259;DHT22;11798;51.528;7.240;2022-11-09T00:35:52;14.70;99.90
23259;DHT22;11798;51.528;7.240;2022-11-09T00:38:17;14.70;99.90
23259;DHT22;11798;51.528;7.240;2022-11-09T00:40:43;14.60;99.90
23259;DHT22;11798;51.528;7.240;2022-11-09T00:43:08;14.50;99.90
23259;DHT22;11798;51.528;7.240;2022-11-09T00:45:34;14.50;99.90
23259;DHT22;11798;51.528;7.240;2022-11-09T00:48:00;14.50;99.90
23259;DHT22;11798;51.528;7.240;2022-11-09T00:50:26;14.50;99.90
23259;DHT22;11798;51.528;7.240;2022-11-09T00:52:51;14.50;99.90
23259;DHT22;11798;51.528;7.240;2022-11-09T00:55:17;14.50;99.90
23259;DHT22;11798;51.528;7.240;2022-11-09T00:57:48;14.50;99.90
23259;DHT22;11798;51.528;7.240;2022-11-09T01:00:21;14.40;99.90
23259;DHT22;11798;51.528;7.240;2022-11-09T01:02:48;14.40;99.90
23259;DHT22;11798;51.528;7.240;2022-11-09T01:05:14;14.40;99.90
23259;DHT22;11798;51.528;7.240;2022-11-09T01:07:40;14.40;99.90
23259;DHT22;11798;51.528;7.240;2022-11-09T01:10:06;14.30;99.90
23259;DHT22;11798;51.528;7.240;2022-11-09T01:12:32;14.30;99.90
23259;DHT22;11798;51.528;7.240;2022-11-09T01:14:57;14.30;99.90
23259;DHT22;11798;51.528;7.240;2022-11-09T01:17:23;14.30;99.90
23259;DHT22;11798;51.528;7.240;2022-11-09T01:19:49;14.30;99.90
23259;DHT22;11798;51.528;7.240;2022-11-09T01:22:15;14.30;99.90
23259;DHT22;11798;51.528;7.240;2022-11-09T01:24:41;14.30;99.90
23259;DHT22;11798;51.528;7.240;2022-11-09T01:27:06;14.20;99.90
23259;DHT22;11798;51.528;7.240;2022-11-09T01:29:32;14.20;99.90
23259;DHT22;11798;51.528;7.240;2022-11-09T01:31:57;14.20;99.90
23259;DHT22;11798;51.528;7.240;2022-11-09T01:34:23;14.20;99.90
23259;DHT22;11798;51.528;7.240;2022-11-09T01:36:49;14.20;99.90
23259;DHT22;11798;51.528;7.240;2022-11-09T01:39:18;14.20;99.90
23259;DHT22;11798;51.528;7.240;2022-11-09T01:41:45;14.20;99.90
23259;DHT22;11798;51.528;7.240;2022-11-09T01:44:18;14.20;99.90
23259;DHT22;11798;51.528;7.240;2022-11-09T01:52:32;14.20;99.90
23259;DHT22;11798;51.528;7.240;2022-11-09T01:55:02;14.20;99.90
23259;DHT22;11798;51.528;7.240;2022-11-09T01:57:35;14.30;99.90
23259;DHT22;11798;51.528;7.240;2022-11-09T02:00:07;14.30;99.90
23259;DHT22;11798;51.528;7.240;2022-11-09T02:02:34;14.30;99.90
23259;DHT22;11798;51.528;7.240;2022-11-09T02:05:04;14.30;99.90
23259;DHT22;11798;51.528;7.240;2022-11-09T02:07:32;14.30;99.90
23259;DHT22;11798;51.528;7.240;2022-11-09T02:10:19;14.20;99.90
23259;DHT22;11798;51.528;7.240;2022-11-09T02:12:47;14.20;99.90
23259;DHT22;11798;51.528;7.240;2022-11-09T02:15:13;14.10;99.90
23259;DHT22;11798;51.528;7.240;2022-11-09T02:17:41;14.00;99.90
23259;DHT22;11798;51.528;7.240;2022-11-09T02:20:12;14.00;99.90
23259;DHT22;11798;51.528;7.240;2022-11-09T02:22:39;14.10;99.90
23259;DHT22;11798;51.528;7.240;2022-11-09T02:25:07;14.00;99.90
23259;DHT22;11798;51.528;7.240;2022-11-09T02:27:33;14.00;99.90
23259;DHT22;11798;51.528;7.240;2022-11-09T02:29:59;14.00;99.90
23259;DHT22;11798;51.528;7.240;2022-11-09T02:32:27;13.90;99.90
23259;DHT22;11798;51.528;7.240;2022-11-09T02:34:54;14.00;99.90
23259;DHT22;11798;51.528;7.240;2022-11-09T02:40:09;13.90;99.90
23259;DHT22;11798;51.528;7.240;2022-11-09T02:42:37;13.90;99.90
23259;DHT22;11798;51.528;7.240;2022-11-09T02:45:03;13.90;99.90
23259;DHT22;11798;51.528;7.240;2022-11-09T02:47:28;13.80;99.90
23259;DHT22;11798;51.528;7.240;2022-11-09T02:49:54;13.80;99.90
23259;DHT22;11798;51.528;7.240;2022-11-09T02:52:22;13.80;99.90
23259;DHT22;11798;51.528;7.240;2022-11-09T02:54:48;13.70;99.90
23259;DHT22;11798;51.528;7.240;2022-11-09T02:57:14;13.70;99.90
23259;DHT22;11798;51.528;7.240;2022-11-09T02:59:39;13.70;99.90
23259;DHT22;11798;51.528;7.240;2022-11-09T03:02:05;13.70;99.90
23259;DHT22;11798;51.528;7.240;2022-11-09T03:04:30;13.70;99.90
23259;DHT22;11798;51.528;7.240;2022-11-09T03:06:56;13.70;99.90
23259;DHT22;11798;51.528;7.240;2022-11-09T03:09:22;13.70;99.90
23259;DHT22;11798;51.528;7.240;2022-11-09T03:11:47;13.60;99.90
23259;DHT22;11798;51.528;7.240;2022-11-09T03:14:14;13.60;99.90
23259;DHT22;11798;51.528;7.240;2022-11-09T03:16:39;13.60;99.90
23259;DHT22;11798;51.528;7.240;2022-11-09T03:19:05;13.60;99.90
23259;DHT22;11798;51.528;7.240;2022-11-09T03:21:31;13.60;99.90
23259;DHT22;11798;51.528;7.240;2022-11-09T03:23:56;13.60;99.90
23259;DHT22;11798;51.528;7.240;2022-11-09T03:26:22;13.60;99.90
23259;DHT22;11798;51.528;7.240;2022-11-09T03:28:48;13.60;99.90
23259;DHT22;11798;51.528;7.240;2022-11-09T03:31:14;13.60;99.90
23259;DHT22;11798;51.528;7.240;2022-11-09T03:33:40;13.70;99.90
23259;DHT22;11798;51.528;7.240;2022-11-09T03:36:06;13.70;99.90
23259;DHT22;11798;51.528;7.240;2022-11-09T03:38:31;13.70;99.90
23259;DHT22;11798;51.528;7.240;2022-11-09T03:41:01;13.70;99.90
23259;DHT22;11798;51.528;7.240;2022-11-09T03:43:27;13.80;99.90
23259;DHT22;11798;51.528;7.240;2022-11-09T03:45:54;13.70;99.90
23259;DHT22;11798;51.528;7.240;2022-11-09T03:48:19;13.80;99.90
23259;DHT22;11798;51.528;7.240;2022-11-09T03:50:45;13.80;99.90
23259;DHT22;11798;51.528;7.240;2022-11-09T03:53:11;13.80;99.90
23259;DHT22;11798;51.528;7.240;2022-11-09T03:55:37;13.80;99.90
23259;DHT22;11798;51.528;7.240;2022-11-09T03:58:05;13.80;99.90
23259;DHT22;11798;51.528;7.240;2022-11-09T04:00:31;13.80;99.90
23259;DHT22;11798;51.528;7.240;2022-11-09T04:02:57;13.80;99.90
23259;DHT22;11798;51.528;7.240;2022-11-09T04:05:22;13.80;99.90
23259;DHT22;11798;51.528;7.240;2022-11-09T04:07:56;13.90;99.90
23259;DHT22;11798;51.528;7.240;2022-11-09T04:10:24;13.90;99.90
23259;DHT22;11798;51.528;7.240;2022-11-09T04:12:50;13.90;99.90
23259;DHT22;11798;51.528;7.240;2022-11-09T04:15:16;13.90;99.90
23259;DHT22;11798;51.528;7.240;2022-11-09T04:17:42;13.90;99.90
23259;DHT22;11798;51.528;7.240;2022-11-09T04:20:09;13.90;99.90
23259;DHT22;11798;51.528;7.240;2022-11-09T04:22:35;13.90;99.90
23259;DHT22;11798;51.528;7.240;2022-11-09T04:25:01;14.00;99.90
23259;DHT22;11798;51.528;7.240;2022-11-09T04:27:26;14.00;99.90
23259;DHT22;11798;51.528;7.240;2022-11-09T04:29:54;13.90;99.90
23259;DHT22;11798;51.528;7.240;2022-11-09T04:32:19;13.90;99.90
23259;DHT22;11798;51.528;7.240;2022-11-09T04:34:45;13.80;99.90
23259;DHT22;11798;51.528;7.240;2022-11-09T04:37:11;13.80;99.90
23259;DHT22;11798;51.528;7.240;2022-11-09T04:39:36;13.80;99.90
23259;DHT22;11798;51.528;7.240;2022-11-09T04:42:02;13.80;99.90
23259;DHT22;11798;51.528;7.240;2022-11-09T04:44:27;13.80;99.90
23259;DHT22;11798;51.528;7.240;2022-11-09T04:46:56;13.80;99.90
23259;DHT22;11798;51.528;7.240;2022-11-09T04:49:22;13.80;99.90
23259;DHT22;11798;51.528;7.240;2022-11-09T04:51:47;13.80;99.90
23259;DHT22;11798;51.528;7.240;2022-11-09T04:54:13;13.80;99.90
23259;DHT22;11798;51.528;7.240;2022-11-09T04:56:39;13.80;99.90
23259;DHT22;11798;51.528;7.240;2022-11-09T04:59:04;13.90;99.90
23259;DHT22;11798;51.528;7.240;2022-11-09T05:01:30;13.90;99.90
23259;DHT22;11798;51.528;7.240;2022-11-09T05:03:55;13.80;99.90
23259;DHT22;11798;51.528;7.240;2022-11-09T05:06:21;13.80;99.90
23259;DHT22;11798;51.528;7.240;2022-11-09T05:09:01;13.80;99.90
23259;DHT22;11798;51.528;7.240;2022-11-09T05:11:28;13.80;99.90
23259;DHT22;11798;51.528;7.240;2022-11-09T05:13:53;13.80;99.90
23259;DHT22;11798;51.528;7.240;2022-11-09T05:16:19;13.80;99.90
23259;DHT22;11798;51.528;7.240;2022-11-09T05:18:45;13.80;99.90
23259;DHT22;11798;51.528;7.240;2022-11-09T05:21:11;13.70;99.90
23259;DHT22;11798;51.528;7.240;2022-11-09T05:23:37;13.70;99.90
23259;DHT22;11798;51.528;7.240;2022-11-09T05:26:21;13.80;99.90
23259;DHT22;11798;51.528;7.240;2022-11-09T05:28:47;13.70;99.90
23259;DHT22;11798;51.528;7.240;2022-11-09T05:31:13;13.70;99.90
23259;DHT22;11798;51.528;7.240;2022-11-09T05:33:38;13.70;99.90
23259;DHT22;11798;51.528;7.240;2022-11-09T05:36:04;13.70;99.90
23259;DHT22;11798;51.528;7.240;2022-11-09T05:38:31;13.60;99.90
23259;DHT22;11798;51.528;7.240;2022-11-09T05:40:56;13.60;99.90
23259;DHT22;11798;51.528;7.240;2022-11-09T05:43:22;13.60;99.90
23259;DHT22;11798;51.528;7.240;2022-11-09T05:45:48;13.50;99.90
23259;DHT22;11798;51.528;7.240;2022-11-09T05:48:15;13.40;99.90
23259;DHT22;11798;51.528;7.240;2022-11-09T05:50:41;13.40;99.90
23259;DHT22;11798;51.528;7.240;2022-11-09T05:53:08;13.40;99.90
23259;DHT22;11798;51.528;7.240;2022-11-09T05:55:34;13.40;99.90
23259;DHT22;11798;51.528;7.240;2022-11-09T05:58:00;13.30;99.90
23259;DHT22;11798;51.528;7.240;2022-11-09T06:00:25;13.30;99.90
23259;DHT22;11798;51.528;7.240;2022-11-09T06:02:51;13.30;99.90
23259;DHT22;11798;51.528;7.240;2022-11-09T06:05:17;13.30;99.90
23259;DHT22;11798;51.528;7.240;2022-11-09T06:07:44;13.30;99.90
23259;DHT22;11798;51.528;7.240;2022-11-09T06:10:10;13.20;99.90
23259;DHT22;11798;51.528;7.240;2022-11-09T06:12:36;13.30;99.90
23259;DHT22;11798;51.528;7.240;2022-11-09T06:15:02;13.20;99.90
23259;DHT22;11798;51.528;7.240;2022-11-09T06:17:28;13.20;99.90
23259;DHT22;11798;51.528;7.240;2022-11-09T06:19:54;13.00;99.90
23259;DHT22;11798;51.528;7.240;2022-11-09T06:24:56;13.00;99.90
23259;DHT22;11798;51.528;7.240;2022-11-09T06:27:22;12.90;99.90
23259;DHT22;11798;51.528;7.240;2022-11-09T06:29:48;12.90;99.90
23259;DHT22;11798;51.528;7.240;2022-11-09T06:32:13;12.80;99.90
23259;DHT22;11798;51.528;7.240;2022-11-09T06:34:39;12.80;99.90
23259;DHT22;11798;51.528;7.240;2022-11-09T06:37:04;12.80;99.90
23259;DHT22;11798;51.528;7.240;2022-11-09T06:39:30;12.80;99.90
23259;DHT22;11798;51.528;7.240;2022-11-09T06:41:55;12.80;99.90
23259;DHT22;11798;51.528;7.240;2022-11-09T06:44:21;12.80;99.90
23259;DHT22;11798;51.528;7.240;2022-11-09T06:46:47;12.80;99.90
23259;DHT22;11798;51.528;7.240;2022-11-09T06:49:12;12.80;99.90
23259;DHT22;11798;51.528;7.240;2022-11-09T06:51:38;12.80;99.90
23259;DHT22;11798;51.528;7.240;2022-11-09T06:54:03;12.90;99.90
23259;DHT22;11798;51.528;7.240;2022-11-09T06:56:29;12.90;99.90
23259;DHT22;11798;51.528;7.240;2022-11-09T06:58:54;12.80;99.90
23259;DHT22;11798;51.528;7.240;2022-11-09T07:01:22;12.80;99.90
23259;DHT22;11798;51.528;7.240;2022-11-09T07:03:50;12.80;99.90
23259;DHT22;11798;51.528;7.240;2022-11-09T07:06:15;12.80;99.90
23259;DHT22;11798;51.528;7.240;2022-11-09T07:08:41;12.80;99.90
23259;DHT22;11798;51.528;7.240;2022-11-09T07:11:10;12.90;99.90
23259;DHT22;11798;51.528;7.240;2022-11-09T07:13:36;12.80;99.90
23259;DHT22;11798;51.528;7.240;2022-11-09T07:16:02;12.80;99.90
23259;DHT22;11798;51.528;7.240;2022-11-09T07:18:28;12.80;99.90
23259;DHT22;11798;51.528;7.240;2022-11-09T07:20:53;12.80;99.90
23259;DHT22;11798;51.528;7.240;2022-11-09T07:23:19;12.80;99.90
23259;DHT22;11798;51.528;7.240;2022-11-09T07:25:44;12.80;99.90
23259;DHT22;11798;51.528;7.240;2022-11-09T07:28:11;12.80;99.90
23259;DHT22;11798;51.528;7.240;2022-11-09T07:30:37;12.80;99.90
23259;DHT22;11798;51.528;7.240;2022-11-09T07:33:08;12.80;99.90
23259;DHT22;11798;51.528;7.240;2022-11-09T07:35:35;12.90;99.90
23259;DHT22;11798;51.528;7.240;2022-11-09T07:38:01;12.90;99.90
23259;DHT22;11798;51.528;7.240;2022-11-09T07:40:28;12.90;99.90
23259;DHT22;11798;51.528;7.240;2022-11-09T07:42:57;12.90;99.90
23259;DHT22;11798;51.528;7.240;2022-11-09T07:45:23;12.90;99.90
23259;DHT22;11798;51.528;7.240;2022-11-09T07:47:57;13.00;99.90
23259;DHT22;11798;51.528;7.240;2022-11-09T07:50:24;13.00;99.90
23259;DHT22;11798;51.528;7.240;2022-11-09T07:52:49;13.00;99.90
23259;DHT22;11798;51.528;7.240;2022-11-09T07:55:15;12.90;99.90
23259;DHT22;11798;51.528;7.240;2022-11-09T07:57:41;12.90;99.90
23259;DHT22;11798;51.528;7.240;2022-11-09T08:00:09;12.90;99.90
23259;DHT22;11798;51.528;7.240;2022-11-09T08:02:35;12.90;99.90
23259;DHT22;11798;51.528;7.240;2022-11-09T08:05:01;12.90;99.90
23259;DHT22;11798;51.528;7.240;2022-11-09T08:07:27;12.80;99.90
23259;DHT22;11798;51.528;7.240;2022-11-09T08:09:53;12.80;99.90
23259;DHT22;11798;51.528;7.240;2022-11-09T08:12:19;12.80;99.90
23259;DHT22;11798;51.528;7.240;2022-11-09T08:14:44;12.80;99.90
23259;DHT22;11798;51.528;7.240;2022-11-09T08:17:10;12.80;99.90
23259;DHT22;11798;51.528;7.240;2022-11-09T08:19:36;12.90;99.90
23259;DHT22;11798;51.528;7.240;2022-11-09T08:22:01;12.90;99.90
23259;DHT22;11798;51.528;7.240;2022-11-09T08:24:27;12.90;99.90
23259;DHT22;11798;51.528;7.240;2022-11-09T08:26:52;12.90;99.90
23259;DHT22;11798;51.528;7.240;2022-11-09T08:29:18;12.90;99.90
23259;DHT22;11798;51.528;7.240;2022-11-09T08:31:43;12.90;99.90
23259;DHT22;11798;51.528;7.240;2022-11-09T08:34:10;12.90;99.90
23259;DHT22;11798;51.528;7.240;2022-11-09T08:36:38;13.00;99.90
23259;DHT22;11798;51.528;7.240;2022-11-09T08:39:04;13.00;99.90
23259;DHT22;11798;51.528;7.240;2022-11-09T08:41:29;13.00;99.90
23259;DHT22;11798;51.528;7.240;2022-11-09T08:43:55;13.00;99.90
23259;DHT22;11798;51.528;7.240;2022-11-09T08:46:20;13.00;99.90
23259;DHT22;11798;51.528;7.240;2022-11-09T08:48:46;13.00;99.90
23259;DHT22;11798;51.528;7.240;2022-11-09T08:51:12;13.00;99.90
23259;DHT22;11798;51.528;7.240;2022-11-09T08:53:37;13.10;99.90
23259;DHT22;11798;51.528;7.240;2022-11-09T08:56:07;13.10;99.90
23259;DHT22;11798;51.528;7.240;2022-11-09T08:58:33;13.20;99.90
23259;DHT22;11798;51.528;7.240;2022-11-09T09:00:59;13.20;99.90
23259;DHT22;11798;51.528;7.240;2022-11-09T09:03:25;13.20;99.90
23259;DHT22;11798;51.528;7.240;2022-11-09T09:05:50;13.20;99.90
23259;DHT22;11798;51.528;7.240;2022-11-09T09:08:16;13.30;99.90
23259;DHT22;11798;51.528;7.240;2022-11-09T09:10:46;13.30;99.90
23259;DHT22;11798;51.528;7.240;2022-11-09T09:13:11;13.40;99.90
23259;DHT22;11798;51.528;7.240;2022-11-09T09:15:37;13.40;99.90
23259;DHT22;11798;51.528;7.240;2022-11-09T09:18:03;13.40;99.90
23259;DHT22;11798;51.528;7.240;2022-11-09T09:20:29;13.40;99.90
23259;DHT22;11798;51.528;7.240;2022-11-09T09:22:58;13.50;99.90
23259;DHT22;11798;51.528;7.240;2022-11-09T09:25:25;13.50;99.90
23259;DHT22;11798;51.528;7.240;2022-11-09T09:27:51;13.60;99.90
23259;DHT22;11798;51.528;7.240;2022-11-09T09:30:17;13.60;99.90
23259;DHT22;11798;51.528;7.240;2022-11-09T09:32:42;13.70;99.90
23259;DHT22;11798;51.528;7.240;2022-11-09T09:35:08;13.70;99.90
23259;DHT22;11798;51.528;7.240;2022-11-09T09:37:34;13.70;99.90
23259;DHT22;11798;51.528;7.240;2022-11-09T09:39:59;13.80;99.90
23259;DHT22;11798;51.528;7.240;2022-11-09T09:42:36;13.90;99.90
23259;DHT22;11798;51.528;7.240;2022-11-09T09:45:08;14.00;99.90
23259;DHT22;11798;51.528;7.240;2022-11-09T09:50:17;14.10;99.90
23259;DHT22;11798;51.528;7.240;2022-11-09T10:00:43;14.20;99.90
23259;DHT22;11798;51.528;7.240;2022-11-09T10:03:16;14.20;99.90
23259;DHT22;11798;51.528;7.240;2022-11-09T10:06:00;14.30;99.90
23259;DHT22;11798;51.528;7.240;2022-11-09T10:16:54;14.60;99.90
23259;DHT22;11798;51.528;7.240;2022-11-09T10:19:31;14.60;99.90
23259;DHT22;11798;51.528;7.240;2022-11-09T10:24:55;14.70;99.90
23259;DHT22;11798;51.528;7.240;2022-11-09T10:27:34;14.70;99.90
23259;DHT22;11798;51.528;7.240;2022-11-09T10:30:01;14.70;99.90
23259;DHT22;11798;51.528;7.240;2022-11-09T10:32:31;14.80;99.90
23259;DHT22;11798;51.528;7.240;2022-11-09T10:35:18;14.70;99.90
23259;DHT22;11798;51.528;7.240;2022-11-09T10:37:47;14.70;99.90
23259;DHT22;11798;51.528;7.240;2022-11-09T10:40:27;14.80;99.90
23259;DHT22;11798;51.528;7.240;2022-11-09T10:43:05;14.80;99.90
23259;DHT22;11798;51.528;7.240;2022-11-09T10:45:34;14.80;99.90
23259;DHT22;11798;51.528;7.240;2022-11-09T10:48:00;14.70;99.90
23259;DHT22;11798;51.528;7.240;2022-11-09T10:50:42;14.60;99.90
23259;DHT22;11798;51.528;7.240;2022-11-09T10:53:25;14.50;99.90
23259;DHT22;11798;51.528;7.240;2022-11-09T10:56:13;14.70;99.90
23259;DHT22;11798;51.528;7.240;2022-11-09T10:58:46;14.60;99.90
23259;DHT22;11798;51.528;7.240;2022-11-09T11:01:22;14.60;99.90
23259;DHT22;11798;51.528;7.240;2022-11-09T11:03:50;14.60;99.90
23259;DHT22;11798;51.528;7.240;2022-11-09T11:09:12;14.50;99.90
23259;DHT22;11798;51.528;7.240;2022-11-09T11:11:38;14.40;99.90
23259;DHT22;11798;51.528;7.240;2022-11-09T11:16:49;14.20;99.90
23259;DHT22;11798;51.528;7.240;2022-11-09T11:19:33;14.20;99.90
23259;DHT22;11798;51.528;7.240;2022-11-09T11:24:57;14.20;99.90
23259;DHT22;11798;51.528;7.240;2022-11-09T11:27:42;14.20;99.90
23259;DHT22;11798;51.528;7.240;2022-11-09T11:30:29;14.30;99.90
23259;DHT22;11798;51.528;7.240;2022-11-09T11:32:56;14.30;99.90
23259;DHT22;11798;51.528;7.240;2022-11-09T11:40:43;14.40;99.90
23259;DHT22;11798;51.528;7.240;2022-11-09T11:43:32;14.40;99.90
23259;DHT22;11798;51.528;7.240;2022-11-09T11:49:23;14.40;99.90
23259;DHT22;11798;51.528;7.240;2022-11-09T11:52:03;14.50;99.90
23259;DHT22;11798;51.528;7.240;2022-11-09T12:00:13;14.50;99.90
23259;DHT22;11798;51.528;7.240;2022-11-09T12:08:07;14.50;99.90
23259;DHT22;11798;51.528;7.240;2022-11-09T12:16:10;14.40;99.90
23259;DHT22;11798;51.528;7.240;2022-11-09T12:24:33;14.50;99.90
23259;DHT22;11798;51.528;7.240;2022-11-09T12:29:50;14.50;99.90
23259;DHT22;11798;51.528;7.240;2022-11-09T12:34:56;14.60;99.90
23259;DHT22;11798;51.528;7.240;2022-11-09T12:37:26;14.80;99.90
23259;DHT22;11798;51.528;7.240;2022-11-09T12:39:54;14.80;99.90
23259;DHT22;11798;51.528;7.240;2022-11-09T12:42:28;14.90;99.90
23259;DHT22;11798;51.528;7.240;2022-11-09T12:47:42;14.80;99.90
23259;DHT22;11798;51.528;7.240;2022-11-09T12:50:14;14.70;99.90
23259;DHT22;11798;51.528;7.240;2022-11-09T12:52:42;14.70;99.90
23259;DHT22;11798;51.528;7.240;2022-11-09T12:55:13;14.70;99.90
23259;DHT22;11798;51.528;7.240;2022-11-09T12:57:45;14.80;99.90
23259;DHT22;11798;51.528;7.240;2022-11-09T13:03:13;14.80;99.90
23259;DHT22;11798;51.528;7.240;2022-11-09T13:05:41;14.80;99.90
23259;DHT22;11798;51.528;7.240;2022-11-09T13:08:19;14.80;99.90
23259;DHT22;11798;51.528;7.240;2022-11-09T13:11:10;14.60;99.90
23259;DHT22;11798;51.528;7.240;2022-11-09T13:13:42;14.60;99.90
23259;DHT22;11798;51.528;7.240;2022-11-09T13:23:52;14.70;99.90
23259;DHT22;11798;51.528;7.240;2022-11-09T13:29:22;14.70;99.90
23259;DHT22;11798;51.528;7.240;2022-11-09T13:32:22;14.70;99.90
23259;DHT22;11798;51.528;7.240;2022-11-09T13:34:56;14.70;99.90
23259;DHT22;11798;51.528;7.240;2022-11-09T13:48:38;14.60;99.90
23259;DHT22;11798;51.528;7.240;2022-11-09T13:51:11;14.60;99.90
23259;DHT22;11798;51.528;7.240;2022-11-09T13:56:26;14.70;99.90
23259;DHT22;11798;51.528;7.240;2022-11-09T13:58:55;14.60;99.90
23259;DHT22;11798;51.528;7.240;2022-11-09T14:01:44;14.60;99.90
23259;DHT22;11798;51.528;7.240;2022-11-09T14:04:28;14.70;99.90
23259;DHT22;11798;51.528;7.240;2022-11-09T14:20:40;14.30;99.90
23259;DHT22;11798;51.528;7.240;2022-11-09T14:23:15;14.30;99.90
23259;DHT22;11798;51.528;7.240;2022-11-09T14:25:42;14.30;99.90
23259;DHT22;11798;51.528;7.240;2022-11-09T14:28:26;14.30;99.90
23259;DHT22;11798;51.528;7.240;2022-11-09T14:30:52;14.20;99.90
23259;DHT22;11798;51.528;7.240;2022-11-09T14:33:32;14.20;99.90
23259;DHT22;11798;51.528;7.240;2022-11-09T14:36:01;14.20;99.90
23259;DHT22;11798;51.528;7.240;2022-11-09T14:38:30;14.20;99.90
23259;DHT22;11798;51.528;7.240;2022-11-09T14:40:56;14.10;99.90
23259;DHT22;11798;51.528;7.240;2022-11-09T14:43:45;14.10;99.90
23259;DHT22;11798;51.528;7.240;2022-11-09T14:46:21;14.10;99.90
23259;DHT22;11798;51.528;7.240;2022-11-09T14:49:01;14.10;99.90
23259;DHT22;11798;51.528;7.240;2022-11-09T14:51:36;14.10;99.90
23259;DHT22;11798;51.528;7.240;2022-11-09T14:54:06;14.10;99.90
23259;DHT22;11798;51.528;7.240;2022-11-09T14:56:36;14.10;99.90
23259;DHT22;11798;51.528;7.240;2022-11-09T14:59:17;14.00;99.90
23259;DHT22;11798;51.528;7.240;2022-11-09T15:02:06;14.00;99.90
23259;DHT22;11798;51.528;7.240;2022-11-09T15:07:27;13.90;99.90
23259;DHT22;11798;51.528;7.240;2022-11-09T15:09:59;13.80;99.90
23259;DHT22;11798;51.528;7.240;2022-11-09T15:12:26;13.70;99.90
23259;DHT22;11798;51.528;7.240;2022-11-09T15:14:56;13.70;99.90
23259;DHT22;11798;51.528;7.240;2022-11-09T15:17:44;13.60;99.90
23259;DHT22;11798;51.528;7.240;2022-11-09T15:25:51;13.40;99.90
23259;DHT22;11798;51.528;7.240;2022-11-09T15:31:08;13.30;99.90
23259;DHT22;11798;51.528;7.240;2022-11-09T15:36:31;13.20;99.90
23259;DHT22;11798;51.528;7.240;2022-11-09T15:39:18;13.20;99.90
23259;DHT22;11798;51.528;7.240;2022-11-09T15:41:43;13.20;99.90
23259;DHT22;11798;51.528;7.240;2022-11-09T15:44:11;13.10;99.90
23259;DHT22;11798;51.528;7.240;2022-11-09T15:46:45;13.00;99.90
23259;DHT22;11798;51.528;7.240;2022-11-09T15:49:13;13.00;99.90
23259;DHT22;11798;51.528;7.240;2022-11-09T15:51:39;13.00;99.90
23259;DHT22;11798;51.528;7.240;2022-11-09T15:54:04;13.00;99.90
23259;DHT22;11798;51.528;7.240;2022-11-09T15:56:30;13.00;99.90
23259;DHT22;11798;51.528;7.240;2022-11-09T15:58:55;12.90;99.90
23259;DHT22;11798;51.528;7.240;2022-11-09T16:01:21;12.90;99.90
23259;DHT22;11798;51.528;7.240;2022-11-09T16:03:47;12.80;99.90
23259;DHT22;11798;51.528;7.240;2022-11-09T16:06:17;12.70;99.90
23259;DHT22;11798;51.528;7.240;2022-11-09T16:08:46;12.70;99.90
23259;DHT22;11798;51.528;7.240;2022-11-09T16:11:12;12.70;99.90
23259;DHT22;11798;51.528;7.240;2022-11-09T16:13:38;12.60;99.90
23259;DHT22;11798;51.528;7.240;2022-11-09T16:16:06;12.60;99.90
23259;DHT22;11798;51.528;7.240;2022-11-09T16:18:32;12.50;99.90
23259;DHT22;11798;51.528;7.240;2022-11-09T16:21:09;12.50;99.90
23259;DHT22;11798;51.528;7.240;2022-11-09T16:23:36;12.40;99.90
23259;DHT22;11798;51.528;7.240;2022-11-09T16:26:11;12.40;99.90
23259;DHT22;11798;51.528;7.240;2022-11-09T16:28:37;12.40;99.90
23259;DHT22;11798;51.528;7.240;2022-11-09T16:31:04;12.30;99.90
23259;DHT22;11798;51.528;7.240;2022-11-09T16:33:30;12.30;99.90
23259;DHT22;11798;51.528;7.240;2022-11-09T16:35:57;12.20;99.90
23259;DHT22;11798;51.528;7.240;2022-11-09T16:38:27;12.20;99.90
23259;DHT22;11798;51.528;7.240;2022-11-09T16:40:53;12.20;99.90
23259;DHT22;11798;51.528;7.240;2022-11-09T16:43:19;12.20;99.90
23259;DHT22;11798;51.528;7.240;2022-11-09T16:45:47;12.20;99.90
23259;DHT22;11798;51.528;7.240;2022-11-09T16:48:15;12.10;99.90
23259;DHT22;11798;51.528;7.240;2022-11-09T16:50:42;12.10;99.90
23259;DHT22;11798;51.528;7.240;2022-11-09T16:53:08;12.10;99.90
23259;DHT22;11798;51.528;7.240;2022-11-09T16:55:34;12.10;99.90
23259;DHT22;11798;51.528;7.240;2022-11-09T16:58:00;12.00;99.90
23259;DHT22;11798;51.528;7.240;2022-11-09T17:00:26;12.00;99.90
23259;DHT22;11798;51.528;7.240;2022-11-09T17:02:52;12.00;99.90
23259;DHT22;11798;51.528;7.240;2022-11-09T17:05:17;12.00;99.90
23259;DHT22;11798;51.528;7.240;2022-11-09T17:07:46;12.00;99.90
23259;DHT22;11798;51.528;7.240;2022-11-09T17:10:12;12.00;99.90
23259;DHT22;11798;51.528;7.240;2022-11-09T17:12:37;12.00;99.90
23259;DHT22;11798;51.528;7.240;2022-11-09T17:15:03;12.00;99.90
23259;DHT22;11798;51.528;7.240;2022-11-09T17:17:29;11.90;99.90
23259;DHT22;11798;51.528;7.240;2022-11-09T17:19:55;11.90;99.90
23259;DHT22;11798;51.528;7.240;2022-11-09T17:22:20;11.90;99.90
23259;DHT22;11798;51.528;7.240;2022-11-09T17:24:46;11.90;99.90
23259;DHT22;11798;51.528;7.240;2022-11-09T17:27:12;11.90;99.90
23259;DHT22;11798;51.528;7.240;2022-11-09T17:29:38;11.90;99.90
23259;DHT22;11798;51.528;7.240;2022-11-09T17:32:05;11.90;99.90
23259;DHT22;11798;51.528;7.240;2022-11-09T17:34:31;11.90;99.90
23259;DHT22;11798;51.528;7.240;2022-11-09T17:36:56;11.80;99.90
23259;DHT22;11798;51.528;7.240;2022-11-09T17:39:22;11.90;99.90
23259;DHT22;11798;51.528;7.240;2022-11-09T17:41:48;11.80;99.90
23259;DHT22;11798;51.528;7.240;2022-11-09T17:44:14;11.80;99.90
23259;DHT22;11798;51.528;7.240;2022-11-09T17:46:40;11.80;99.90
23259;DHT22;11798;51.528;7.240;2022-11-09T17:49:05;11.80;99.90
23259;DHT22;11798;51.528;7.240;2022-11-09T17:51:31;11.80;99.90
23259;DHT22;11798;51.528;7.240;2022-11-09T17:53:57;11.70;99.90